sensor_id;sensor_type;location;lat;lon;timestamp;pressure;altitude;pressure_sealevel;temperature;humidity
53316;BME280;39204;53.896;11.432;2022-10-01T05:11:30;100192.75;;;11.20;100.00
53316;BME280;39204;53.896;11.432;2022-10-01T05:13:00;100192.50;;;11.16;100.00
53316;BME280;39204;53.896;11.432;2022-10-01T05:14:31;100190.63;;;11.27;100.00
53316;BME280;39204;53.896;11.432;2022-10-01T05:16:01;100186.03;;;11.17;100.00
53316;BME280;39204;53.896;11.432;2022-10-01T05:17:32;100184.69;;;11.14;100.00
53316;BME280;39204;53.896;11.432;2022-10-01T05:19:03;100177.44;;;11.15;100.00
53316;BME280;39204;53.896;11.432;2022-10-01T05:20:33;100189.53;;;11.12;100.00
53316;BME280;39204;53.896;11.432;2022-10-01T05:22:04;100184.44;;;11.26;100.00
53316;BME280;39204;53.896;11.432;2022-10-01T05:23:34;100185.03;;;11.38;100.00
53316;BME280;39204;53.896;11.432;2022-10-01T05:25:05;100173.44;;;11.23;100.00
53316;BME280;39204;53.896;11.432;2022-10-01T05:26:36;100179.38;;;11.30;100.00
53316;BME280;39204;53.896;11.432;2022-10-01T05:28:07;100180.44;;;11.24;100.00
53316;BME280;39204;53.896;11.432;2022-10-01T05:29:39;100176.69;;;11.30;100.00
53316;BME280;39204;53.896;11.432;2022-10-01T05:31:11;100179.31;;;11.20;100.00
53316;BME280;39204;53.896;11.432;2022-10-01T05:32:42;100169.13;;;11.11;100.00
53316;BME280;39204;53.896;11.432;2022-10-01T05:34:12;100165.66;;;11.26;100.00
53316;BME280;39204;53.896;11.432;2022-10-01T05:35:43;100159.28;;;11.43;100.00
53316;BME280;39204;53.896;11.432;2022-10-01T05:37:14;100160.63;;;11.40;100.00
53316;BME280;39204;53.896;11.432;2022-10-01T05:38:46;100169.75;;;11.44;100.00
53316;BME280;39204;53.896;11.432;2022-10-01T05:40:17;100168.38;;;11.42;100.00
53316;BME280;39204;53.896;11.432;2022-10-01T05:41:48;100161.94;;;11.32;100.00
53316;BME280;39204;53.896;11.432;2022-10-01T05:43:18;100165.97;;;11.35;100.00
53316;BME280;39204;53.896;11.432;2022-10-01T05:44:48;100175.09;;;11.34;100.00
53316;BME280;39204;53.896;11.432;2022-10-01T05:46:19;100163.56;;;11.44;100.00
53316;BME280;39204;53.896;11.432;2022-10-01T05:47:56;100169.75;;;11.49;100.00
53316;BME280;39204;53.896;11.432;2022-10-01T05:49:27;100171.66;;;11.54;100.00
53316;BME280;39204;53.896;11.432;2022-10-01T05:50:57;100167.06;;;11.49;100.00
53316;BME280;39204;53.896;11.432;2022-10-01T05:52:28;100150.97;;;11.39;100.00
53316;BME280;39204;53.896;11.432;2022-10-01T05:53:58;100161.72;;;11.54;100.00
53316;BME280;39204;53.896;11.432;2022-10-01T05:55:29;100155.25;;;11.60;100.00
53316;BME280;39204;53.896;11.432;2022-10-01T05:57:04;100152.59;;;11.66;100.00
53316;BME280;39204;53.896;11.432;2022-10-01T05:58:35;100149.31;;;11.38;100.00
53316;BME280;39204;53.896;11.432;2022-10-01T06:00:05;100143.41;;;11.31;100.00
53316;BME280;39204;53.896;11.432;2022-10-01T06:01:35;100157.94;;;11.45;100.00
53316;BME280;39204;53.896;11.432;2022-10-01T06:03:06;100156.88;;;11.51;100.00
53316;BME280;39204;53.896;11.432;2022-10-01T06:04:37;100159.03;;;11.54;100.00
53316;BME280;39204;53.896;11.432;2022-10-01T06:06:07;100154.16;;;11.41;100.00
53316;BME280;39204;53.896;11.432;2022-10-01T06:07:37;100150.69;;;11.35;100.00
53316;BME280;39204;53.896;11.432;2022-10-01T06:09:07;100149.88;;;11.35;100.00
53316;BME280;39204;53.896;11.432;2022-10-01T06:10:38;100146.41;;;11.39;100.00
53316;BME280;39204;53.896;11.432;2022-10-01T06:12:08;100142.88;;;11.29;100.00
53316;BME280;39204;53.896;11.432;2022-10-01T06:13:38;100146.91;;;11.31;100.00
53316;BME280;39204;53.896;11.432;2022-10-01T06:15:14;100140.50;;;11.48;100.00
53316;BME280;39204;53.896;11.432;2022-10-01T06:16:45;100138.03;;;11.31;100.00
53316;BME280;39204;53.896;11.432;2022-10-01T06:18:16;100139.41;;;11.28;100.00
53316;BME280;39204;53.896;11.432;2022-10-01T06:19:47;100137.00;;;11.52;100.00
53316;BME280;39204;53.896;11.432;2022-10-01T06:21:17;100127.03;;;11.22;100.00
53316;BME280;39204;53.896;11.432;2022-10-01T06:22:55;100132.91;;;11.19;100.00
53316;BME280;39204;53.896;11.432;2022-10-01T06:24:25;100122.22;;;11.34;100.00
53316;BME280;39204;53.896;11.432;2022-10-01T06:25:58;100126.50;;;11.30;100.00
53316;BME280;39204;53.896;11.432;2022-10-01T06:27:28;100116.31;;;11.53;100.00
53316;BME280;39204;53.896;11.432;2022-10-01T06:28:59;100113.66;;;11.43;100.00
53316;BME280;39204;53.896;11.432;2022-10-01T06:30:30;100111.47;;;11.34;100.00
53316;BME280;39204;53.896;11.432;2022-10-01T06:32:01;100100.78;;;11.39;100.00
53316;BME280;39204;53.896;11.432;2022-10-01T06:33:31;100108.56;;;11.51;100.00
53316;BME280;39204;53.896;11.432;2022-10-01T06:35:02;100109.63;;;11.40;100.00
53316;BME280;39204;53.896;11.432;2022-10-01T06:36:32;100098.34;;;11.33;100.00
53316;BME280;39204;53.896;11.432;2022-10-01T06:38:03;100098.34;;;11.58;100.00
53316;BME280;39204;53.896;11.432;2022-10-01T06:39:33;100098.09;;;11.55;100.00
53316;BME280;39204;53.896;11.432;2022-10-01T06:41:04;100091.38;;;11.32;100.00
53316;BME280;39204;53.896;11.432;2022-10-01T06:42:34;100082.53;;;11.62;100.00
53316;BME280;39204;53.896;11.432;2022-10-01T06:44:04;100067.22;;;11.52;100.00
53316;BME280;39204;53.896;11.432;2022-10-01T06:45:37;100084.66;;;11.80;100.00
53316;BME280;39204;53.896;11.432;2022-10-01T06:47:08;100077.44;;;11.86;100.00
53316;BME280;39204;53.896;11.432;2022-10-01T06:48:38;100070.16;;;12.02;100.00
53316;BME280;39204;53.896;11.432;2022-10-01T06:50:09;100076.63;;;11.85;100.00
53316;BME280;39204;53.896;11.432;2022-10-01T06:51:39;100074.75;;;11.91;100.00
53316;BME280;39204;53.896;11.432;2022-10-01T06:53:28;100077.16;;;11.93;100.00
53316;BME280;39204;53.896;11.432;2022-10-01T06:54:59;100073.66;;;12.02;100.00
53316;BME280;39204;53.896;11.432;2022-10-01T06:56:30;100066.69;;;11.86;100.00
53316;BME280;39204;53.896;11.432;2022-10-01T06:58:02;100071.53;;;11.84;100.00
53316;BME280;39204;53.896;11.432;2022-10-01T06:59:33;100055.38;;;12.04;100.00
53316;BME280;39204;53.896;11.432;2022-10-01T07:01:05;100060.22;;;12.13;100.00
53316;BME280;39204;53.896;11.432;2022-10-01T07:02:36;100047.63;;;11.88;100.00
53316;BME280;39204;53.896;11.432;2022-10-01T07:04:06;100057.78;;;12.01;100.00
53316;BME280;39204;53.896;11.432;2022-10-01T07:05:38;100054.56;;;12.14;100.00
53316;BME280;39204;53.896;11.432;2022-10-01T07:07:09;100046.47;;;12.24;100.00
53316;BME280;39204;53.896;11.432;2022-10-01T07:08:39;100034.41;;;12.06;100.00
53316;BME280;39204;53.896;11.432;2022-10-01T07:10:10;100031.94;;;12.25;100.00
53316;BME280;39204;53.896;11.432;2022-10-01T07:11:41;100034.13;;;12.13;100.00
53316;BME280;39204;53.896;11.432;2022-10-01T07:13:14;100041.38;;;12.18;100.00
53316;BME280;39204;53.896;11.432;2022-10-01T07:14:45;100027.44;;;12.00;100.00
53316;BME280;39204;53.896;11.432;2022-10-01T07:16:15;100027.47;;;11.75;100.00
53316;BME280;39204;53.896;11.432;2022-10-01T07:17:48;100035.53;;;11.95;100.00
53316;BME280;39204;53.896;11.432;2022-10-01T07:19:19;100023.72;;;11.76;100.00
53316;BME280;39204;53.896;11.432;2022-10-01T07:20:50;100027.22;;;11.86;100.00
53316;BME280;39204;53.896;11.432;2022-10-01T07:22:20;100032.59;;;11.86;100.00
53316;BME280;39204;53.896;11.432;2022-10-01T07:23:53;100025.56;;;11.96;100.00
53316;BME280;39204;53.896;11.432;2022-10-01T07:25:24;100032.78;;;12.10;100.00
53316;BME280;39204;53.896;11.432;2022-10-01T07:26:54;100033.28;;;12.28;100.00
53316;BME280;39204;53.896;11.432;2022-10-01T07:28:25;100023.94;;;12.10;100.00
53316;BME280;39204;53.896;11.432;2022-10-01T07:29:57;100023.97;;;11.90;100.00
53316;BME280;39204;53.896;11.432;2022-10-01T07:31:28;100022.31;;;12.14;100.00
53316;BME280;39204;53.896;11.432;2022-10-01T07:32:58;100018.28;;;12.01;100.00
53316;BME280;39204;53.896;11.432;2022-10-01T07:34:28;100014.50;;;12.18;100.00
53316;BME280;39204;53.896;11.432;2022-10-01T07:36:04;100010.53;;;12.00;100.00
53316;BME280;39204;53.896;11.432;2022-10-01T07:37:34;100007.06;;;11.84;100.00
53316;BME280;39204;53.896;11.432;2022-10-01T07:39:05;100007.31;;;11.98;100.00
53316;BME280;39204;53.896;11.432;2022-10-01T07:40:35;100011.84;;;11.97;100.00
53316;BME280;39204;53.896;11.432;2022-10-01T07:42:05;99995.22;;;11.95;100.00
53316;BME280;39204;53.896;11.432;2022-10-01T07:43:36;100000.56;;;12.00;100.00
53316;BME280;39204;53.896;11.432;2022-10-01T07:45:09;99998.97;;;11.99;100.00
53316;BME280;39204;53.896;11.432;2022-10-01T07:46:39;100002.75;;;11.78;100.00
53316;BME280;39204;53.896;11.432;2022-10-01T07:48:10;100011.31;;;12.00;100.00
53316;BME280;39204;53.896;11.432;2022-10-01T07:49:40;99997.94;;;11.80;100.00
53316;BME280;39204;53.896;11.432;2022-10-01T07:51:10;100003.53;;;11.94;100.00
53316;BME280;39204;53.896;11.432;2022-10-01T07:52:40;100002.47;;;11.90;100.00
53316;BME280;39204;53.896;11.432;2022-10-01T07:54:11;100006.50;;;11.97;100.00
53316;BME280;39204;53.896;11.432;2022-10-01T07:55:42;99996.56;;;11.82;100.00
53316;BME280;39204;53.896;11.432;2022-10-01T07:57:13;99997.13;;;11.64;100.00
53316;BME280;39204;53.896;11.432;2022-10-01T07:58:44;99983.97;;;11.68;100.00
53316;BME280;39204;53.896;11.432;2022-10-01T08:00:14;99996.59;;;11.67;100.00
53316;BME280;39204;53.896;11.432;2022-10-01T08:01:48;99987.50;;;11.43;100.00
53316;BME280;39204;53.896;11.432;2022-10-01T08:03:20;99989.88;;;11.59;100.00
53316;BME280;39204;53.896;11.432;2022-10-01T08:04:50;99989.91;;;11.54;100.00
53316;BME280;39204;53.896;11.432;2022-10-01T08:06:39;99985.06;;;11.41;100.00
53316;BME280;39204;53.896;11.432;2022-10-01T08:08:09;99993.13;;;11.61;100.00
53316;BME280;39204;53.896;11.432;2022-10-01T08:09:40;99984.25;;;11.56;100.00
53316;BME280;39204;53.896;11.432;2022-10-01T08:11:11;99988.56;;;11.52;100.00
53316;BME280;39204;53.896;11.432;2022-10-01T08:12:44;99985.84;;;11.72;100.00
53316;BME280;39204;53.896;11.432;2022-10-01T08:14:14;99977.81;;;11.62;100.00
53316;BME280;39204;53.896;11.432;2022-10-01T08:15:48;99981.81;;;11.75;100.00
53316;BME280;39204;53.896;11.432;2022-10-01T08:17:19;99975.91;;;11.83;100.00
53316;BME280;39204;53.896;11.432;2022-10-01T08:18:49;99976.44;;;11.95;100.00
53316;BME280;39204;53.896;11.432;2022-10-01T08:20:24;99976.19;;;11.66;100.00
53316;BME280;39204;53.896;11.432;2022-10-01T08:21:54;99969.47;;;11.63;100.00
53316;BME280;39204;53.896;11.432;2022-10-01T08:23:25;99962.53;;;11.47;100.00
53316;BME280;39204;53.896;11.432;2022-10-01T08:24:55;99970.56;;;11.73;100.00
53316;BME280;39204;53.896;11.432;2022-10-01T08:26:25;99968.63;;;11.94;100.00
53316;BME280;39204;53.896;11.432;2022-10-01T08:27:56;99975.59;;;12.00;100.00
53316;BME280;39204;53.896;11.432;2022-10-01T08:29:26;99973.75;;;11.80;100.00
53316;BME280;39204;53.896;11.432;2022-10-01T08:30:56;99956.84;;;11.84;100.00
53316;BME280;39204;53.896;11.432;2022-10-01T08:32:27;99967.84;;;11.68;100.00
53316;BME280;39204;53.896;11.432;2022-10-01T08:33:57;99964.91;;;11.69;100.00
53316;BME280;39204;53.896;11.432;2022-10-01T08:35:28;99968.38;;;11.75;100.00
53316;BME280;39204;53.896;11.432;2022-10-01T08:36:59;99964.88;;;11.95;100.00
53316;BME280;39204;53.896;11.432;2022-10-01T08:38:29;99961.94;;;11.71;100.00
53316;BME280;39204;53.896;11.432;2022-10-01T08:39:59;99954.16;;;11.79;100.00
53316;BME280;39204;53.896;11.432;2022-10-01T08:42:04;99956.03;;;11.74;100.00
53316;BME280;39204;53.896;11.432;2022-10-01T08:43:37;99956.88;;;11.59;100.00
53316;BME280;39204;53.896;11.432;2022-10-01T08:45:47;99952.56;;;11.73;100.00
53316;BME280;39204;53.896;11.432;2022-10-01T08:47:37;99948.22;;;11.93;100.00
53316;BME280;39204;53.896;11.432;2022-10-01T08:49:21;99952.78;;;11.92;100.00
53316;BME280;39204;53.896;11.432;2022-10-01T08:51:04;99950.13;;;11.87;100.00
53316;BME280;39204;53.896;11.432;2022-10-01T08:52:41;99952.00;;;11.81;100.00
53316;BME280;39204;53.896;11.432;2022-10-01T08:54:34;99948.53;;;11.71;100.00
53316;BME280;39204;53.896;11.432;2022-10-01T08:57:53;99938.31;;;11.83;100.00
53316;BME280;39204;53.896;11.432;2022-10-01T08:59:31;99938.53;;;11.97;100.00
53316;BME280;39204;53.896;11.432;2022-10-01T09:01:04;99930.25;;;11.78;100.00
53316;BME280;39204;53.896;11.432;2022-10-01T09:02:37;99934.53;;;11.89;100.00
53316;BME280;39204;53.896;11.432;2022-10-01T09:04:08;99925.41;;;11.80;100.00
53316;BME280;39204;53.896;11.432;2022-10-01T09:11:29;99913.06;;;11.84;100.00
53316;BME280;39204;53.896;11.432;2022-10-01T09:13:21;99908.75;;;11.83;100.00
53316;BME280;39204;53.896;11.432;2022-10-01T09:15:12;99910.44;;;11.58;100.00
53316;BME280;39204;53.896;11.432;2022-10-01T09:17:08;99901.53;;;11.73;100.00
53316;BME280;39204;53.896;11.432;2022-10-01T09:21:59;99905.09;;;11.48;100.00
53316;BME280;39204;53.896;11.432;2022-10-01T09:23:47;99900.25;;;11.45;100.00
53316;BME280;39204;53.896;11.432;2022-10-01T09:25:25;99900.25;;;11.45;100.00
53316;BME280;39204;53.896;11.432;2022-10-01T09:26:56;99898.88;;;11.63;100.00
53316;BME280;39204;53.896;11.432;2022-10-01T09:28:32;99899.44;;;11.55;100.00
53316;BME280;39204;53.896;11.432;2022-10-01T09:30:10;99896.22;;;11.53;100.00
53316;BME280;39204;53.896;11.432;2022-10-01T09:31:43;99904.44;;;11.82;100.00
53316;BME280;39204;53.896;11.432;2022-10-01T09:33:18;99894.78;;;11.81;100.00
53316;BME280;39204;53.896;11.432;2022-10-01T09:34:49;99891.03;;;11.82;100.00
53316;BME280;39204;53.896;11.432;2022-10-01T09:40:24;99890.50;;;11.75;100.00
53316;BME280;39204;53.896;11.432;2022-10-01T09:41:57;99889.16;;;11.77;100.00
53316;BME280;39204;53.896;11.432;2022-10-01T09:43:33;99890.31;;;11.61;100.00
53316;BME280;39204;53.896;11.432;2022-10-01T09:45:04;99886.00;;;11.60;100.00
53316;BME280;39204;53.896;11.432;2022-10-01T09:46:35;99878.50;;;11.52;100.00
53316;BME280;39204;53.896;11.432;2022-10-01T09:50:04;99874.66;;;11.78;100.00
53316;BME280;39204;53.896;11.432;2022-10-01T09:51:41;99881.69;;;11.69;100.00
53316;BME280;39204;53.896;11.432;2022-10-01T09:53:17;99882.97;;;11.82;100.00
53316;BME280;39204;53.896;11.432;2022-10-01T09:56:33;99880.63;;;11.65;100.00
53316;BME280;39204;53.896;11.432;2022-10-01T09:58:17;99875.75;;;11.67;100.00
53316;BME280;39204;53.896;11.432;2022-10-01T09:59:54;99875.44;;;11.79;100.00
53316;BME280;39204;53.896;11.432;2022-10-01T10:01:47;99873.94;;;11.57;100.00
53316;BME280;39204;53.896;11.432;2022-10-01T10:03:24;99868.44;;;11.93;100.00
53316;BME280;39204;53.896;11.432;2022-10-01T10:05:04;99858.25;;;11.90;100.00
53316;BME280;39204;53.896;11.432;2022-10-01T10:06:36;99866.28;;;11.90;100.00
53316;BME280;39204;53.896;11.432;2022-10-01T10:08:19;99864.19;;;11.77;100.00
53316;BME280;39204;53.896;11.432;2022-10-01T10:09:52;99866.69;;;11.58;100.00
53316;BME280;39204;53.896;11.432;2022-10-01T10:11:26;99862.00;;;11.89;100.00
53316;BME280;39204;53.896;11.432;2022-10-01T10:13:14;99871.13;;;11.93;100.00
53316;BME280;39204;53.896;11.432;2022-10-01T10:14:47;99866.63;;;11.73;100.00
53316;BME280;39204;53.896;11.432;2022-10-01T10:16:21;99865.78;;;11.83;100.00
53316;BME280;39204;53.896;11.432;2022-10-01T10:17:57;99866.63;;;11.83;100.00
53316;BME280;39204;53.896;11.432;2022-10-01T10:19:35;99858.44;;;12.04;100.00
53316;BME280;39204;53.896;11.432;2022-10-01T10:21:13;99853.94;;;11.94;100.00
53316;BME280;39204;53.896;11.432;2022-10-01T10:22:44;99857.91;;;12.07;100.00
53316;BME280;39204;53.896;11.432;2022-10-01T10:24:43;99860.63;;;12.02;100.00
53316;BME280;39204;53.896;11.432;2022-10-01T10:26:40;99859.97;;;12.20;100.00
53316;BME280;39204;53.896;11.432;2022-10-01T10:28:20;99858.69;;;12.07;100.00
53316;BME280;39204;53.896;11.432;2022-10-01T10:30:15;99865.66;;;12.08;100.00
53316;BME280;39204;53.896;11.432;2022-10-01T10:31:46;99860.78;;;12.21;100.00
53316;BME280;39204;53.896;11.432;2022-10-01T10:33:22;99862.88;;;12.29;100.00
53316;BME280;39204;53.896;11.432;2022-10-01T10:34:55;99853.63;;;12.01;100.00
53316;BME280;39204;53.896;11.432;2022-10-01T10:36:29;99867.72;;;12.27;100.00
53316;BME280;39204;53.896;11.432;2022-10-01T10:38:01;99857.28;;;12.20;100.00
53316;BME280;39204;53.896;11.432;2022-10-01T10:39:39;99847.97;;;12.47;100.00
53316;BME280;39204;53.896;11.432;2022-10-01T10:41:16;99855.72;;;12.53;100.00
53316;BME280;39204;53.896;11.432;2022-10-01T10:42:52;99856.63;;;12.39;100.00
53316;BME280;39204;53.896;11.432;2022-10-01T10:44:26;99856.59;;;12.44;100.00
53316;BME280;39204;53.896;11.432;2022-10-01T10:46:01;99853.38;;;12.42;100.00
53316;BME280;39204;53.896;11.432;2022-10-01T10:47:43;99852.69;;;12.60;100.00
53316;BME280;39204;53.896;11.432;2022-10-01T10:49:21;99851.41;;;12.52;100.00
53316;BME280;39204;53.896;11.432;2022-10-01T10:50:58;99861.13;;;12.48;100.00
53316;BME280;39204;53.896;11.432;2022-10-01T10:52:32;99849.44;;;12.63;100.00
53316;BME280;39204;53.896;11.432;2022-10-01T10:54:16;99852.91;;;12.69;100.00
53316;BME280;39204;53.896;11.432;2022-10-01T10:56:03;99864.25;;;12.60;100.00
53316;BME280;39204;53.896;11.432;2022-10-01T10:57:34;99850.34;;;12.82;100.00
53316;BME280;39204;53.896;11.432;2022-10-01T10:59:06;99850.34;;;12.53;100.00
53316;BME280;39204;53.896;11.432;2022-10-01T11:00:48;99845.13;;;12.67;100.00
53316;BME280;39204;53.896;11.432;2022-10-01T11:02:20;99855.66;;;12.93;100.00
53316;BME280;39204;53.896;11.432;2022-10-01T11:03:55;99849.84;;;12.80;100.00
53316;BME280;39204;53.896;11.432;2022-10-01T11:05:29;99849.06;;;12.80;100.00
53316;BME280;39204;53.896;11.432;2022-10-01T11:07:01;99845.91;;;12.68;100.00
53316;BME280;39204;53.896;11.432;2022-10-01T11:08:32;99847.69;;;12.48;100.00
53316;BME280;39204;53.896;11.432;2022-10-01T11:15:59;99847.63;;;12.58;100.00
53316;BME280;39204;53.896;11.432;2022-10-01T11:17:44;99846.59;;;12.83;100.00
53316;BME280;39204;53.896;11.432;2022-10-01T11:24:59;99846.31;;;12.85;100.00
53316;BME280;39204;53.896;11.432;2022-10-01T11:26:50;99837.03;;;12.72;100.00
53316;BME280;39204;53.896;11.432;2022-10-01T11:28:37;99837.34;;;12.66;100.00
53316;BME280;39204;53.896;11.432;2022-10-01T11:30:18;99849.44;;;12.68;100.00
53316;BME280;39204;53.896;11.432;2022-10-01T11:32:14;99856.53;;;12.54;100.00
53316;BME280;39204;53.896;11.432;2022-10-01T11:37:48;99847.00;;;12.32;100.00
53316;BME280;39204;53.896;11.432;2022-10-01T11:39:24;99847.31;;;12.65;100.00
53316;BME280;39204;53.896;11.432;2022-10-01T11:41:21;99842.78;;;12.55;100.00
53316;BME280;39204;53.896;11.432;2022-10-01T11:42:57;99848.16;;;12.55;100.00
53316;BME280;39204;53.896;11.432;2022-10-01T11:44:38;99858.19;;;12.45;100.00
53316;BME280;39204;53.896;11.432;2022-10-01T11:46:26;99847.06;;;12.56;100.00
53316;BME280;39204;53.896;11.432;2022-10-01T11:48:04;99854.41;;;12.51;100.00
53316;BME280;39204;53.896;11.432;2022-10-01T11:51:33;99858.47;;;12.43;100.00
53316;BME280;39204;53.896;11.432;2022-10-01T11:53:27;99860.75;;;12.65;100.00
53316;BME280;39204;53.896;11.432;2022-10-01T11:55:25;99855.00;;;12.77;100.00
53316;BME280;39204;53.896;11.432;2022-10-01T11:57:16;99850.00;;;12.65;100.00
53316;BME280;39204;53.896;11.432;2022-10-01T11:59:16;99853.34;;;12.81;100.00
53316;BME280;39204;53.896;11.432;2022-10-01T12:00:59;99852.16;;;12.92;100.00
53316;BME280;39204;53.896;11.432;2022-10-01T12:02:46;99862.13;;;12.92;100.00
53316;BME280;39204;53.896;11.432;2022-10-01T12:04:35;99851.41;;;13.16;100.00
53316;BME280;39204;53.896;11.432;2022-10-01T12:06:09;99860.00;;;13.18;100.00
53316;BME280;39204;53.896;11.432;2022-10-01T12:11:41;99863.31;;;13.39;100.00
53316;BME280;39204;53.896;11.432;2022-10-01T12:13:29;99866.47;;;13.70;100.00
53316;BME280;39204;53.896;11.432;2022-10-01T12:15:19;99850.69;;;14.01;100.00
53316;BME280;39204;53.896;11.432;2022-10-01T12:16:59;99848.53;;;14.03;100.00
53316;BME280;39204;53.896;11.432;2022-10-01T12:20:26;99860.75;;;13.95;100.00
53316;BME280;39204;53.896;11.432;2022-10-01T12:22:10;99858.78;;;14.20;100.00
53316;BME280;39204;53.896;11.432;2022-10-01T12:23:49;99850.50;;;14.54;100.00
53316;BME280;39204;53.896;11.432;2022-10-01T12:25:26;99853.28;;;14.82;100.00
53316;BME280;39204;53.896;11.432;2022-10-01T12:27:41;99848.34;;;15.03;100.00
53316;BME280;39204;53.896;11.432;2022-10-01T12:28:56;99842.25;;;15.11;100.00
53316;BME280;39204;53.896;11.432;2022-10-01T12:30:33;99848.03;;;15.04;100.00
53316;BME280;39204;53.896;11.432;2022-10-01T12:33:54;99848.91;;;14.86;100.00
53316;BME280;39204;53.896;11.432;2022-10-01T12:35:54;99847.25;;;14.71;100.00
53316;BME280;39204;53.896;11.432;2022-10-01T12:39:17;99861.09;;;14.83;100.00
53316;BME280;39204;53.896;11.432;2022-10-01T12:43:03;99843.50;;;14.86;100.00
53316;BME280;39204;53.896;11.432;2022-10-01T12:44:59;99856.31;;;14.42;100.00
53316;BME280;39204;53.896;11.432;2022-10-01T12:47:00;99859.94;;;14.70;100.00
53316;BME280;39204;53.896;11.432;2022-10-01T12:48:58;99850.69;;;14.76;100.00
53316;BME280;39204;53.896;11.432;2022-10-01T12:52:32;99842.03;;;14.61;100.00
53316;BME280;39204;53.896;11.432;2022-10-01T12:54:24;99848.28;;;14.75;100.00
53316;BME280;39204;53.896;11.432;2022-10-01T12:58:04;99844.50;;;15.36;100.00
53316;BME280;39204;53.896;11.432;2022-10-01T12:59:49;99842.41;;;15.47;100.00
53316;BME280;39204;53.896;11.432;2022-10-01T13:01:38;99842.94;;;15.16;100.00
53316;BME280;39204;53.896;11.432;2022-10-01T13:03:34;99845.28;;;15.09;100.00
53316;BME280;39204;53.896;11.432;2022-10-01T13:07:33;99841.91;;;15.72;100.00
53316;BME280;39204;53.896;11.432;2022-10-01T13:09:30;99841.00;;;15.91;100.00
53316;BME280;39204;53.896;11.432;2022-10-01T13:11:29;99831.41;;;16.21;100.00
53316;BME280;39204;53.896;11.432;2022-10-01T13:13:27;99830.47;;;15.89;100.00
53316;BME280;39204;53.896;11.432;2022-10-01T13:15:03;99840.53;;;16.11;100.00
53316;BME280;39204;53.896;11.432;2022-10-01T13:18:29;99828.72;;;16.07;100.00
53316;BME280;39204;53.896;11.432;2022-10-01T13:20:20;99818.59;;;15.77;100.00
53316;BME280;39204;53.896;11.432;2022-10-01T13:22:13;99833.47;;;15.88;100.00
53316;BME280;39204;53.896;11.432;2022-10-01T13:25:42;99834.56;;;15.87;100.00
53316;BME280;39204;53.896;11.432;2022-10-01T13:30:26;99836.47;;;15.59;100.00
53316;BME280;39204;53.896;11.432;2022-10-01T13:32:23;99841.78;;;15.78;100.00
53316;BME280;39204;53.896;11.432;2022-10-01T13:33:56;99845.56;;;15.90;100.00
53316;BME280;39204;53.896;11.432;2022-10-01T13:35:33;99844.09;;;15.84;100.00
53316;BME280;39204;53.896;11.432;2022-10-01T13:37:16;99845.69;;;15.85;100.00
53316;BME280;39204;53.896;11.432;2022-10-01T13:38:47;99849.97;;;15.86;100.00
53316;BME280;39204;53.896;11.432;2022-10-01T13:40:28;99847.25;;;16.00;100.00
53316;BME280;39204;53.896;11.432;2022-10-01T13:41:59;99840.88;;;15.82;100.00
53316;BME280;39204;53.896;11.432;2022-10-01T13:43:31;99846.41;;;15.91;100.00
53316;BME280;39204;53.896;11.432;2022-10-01T13:45:05;99844.03;;;16.12;100.00
53316;BME280;39204;53.896;11.432;2022-10-01T13:46:49;99845.78;;;16.30;100.00
53316;BME280;39204;53.896;11.432;2022-10-01T13:48:24;99845.38;;;16.59;100.00
53316;BME280;39204;53.896;11.432;2022-10-01T13:50:06;99840.75;;;16.60;100.00
53316;BME280;39204;53.896;11.432;2022-10-01T13:51:46;99851.72;;;16.55;100.00
53316;BME280;39204;53.896;11.432;2022-10-01T13:53:19;99852.00;;;16.53;100.00
53316;BME280;39204;53.896;11.432;2022-10-01T13:54:54;99840.88;;;16.55;100.00
53316;BME280;39204;53.896;11.432;2022-10-01T13:56:31;99844.16;;;16.43;100.00
53316;BME280;39204;53.896;11.432;2022-10-01T13:58:06;99849.38;;;16.39;100.00
53316;BME280;39204;53.896;11.432;2022-10-01T14:00:00;99852.69;;;16.36;100.00
53316;BME280;39204;53.896;11.432;2022-10-01T14:01:40;99850.38;;;16.30;100.00
53316;BME280;39204;53.896;11.432;2022-10-01T14:03:37;99853.41;;;16.28;100.00
53316;BME280;39204;53.896;11.432;2022-10-01T14:05:37;99855.94;;;16.47;100.00
53316;BME280;39204;53.896;11.432;2022-10-01T14:07:18;99852.03;;;16.17;100.00
53316;BME280;39204;53.896;11.432;2022-10-01T14:08:57;99851.38;;;16.56;100.00
53316;BME280;39204;53.896;11.432;2022-10-01T14:10:37;99855.81;;;16.30;100.00
53316;BME280;39204;53.896;11.432;2022-10-01T14:12:33;99851.09;;;16.35;100.00
53316;BME280;39204;53.896;11.432;2022-10-01T14:16:12;99856.94;;;16.15;100.00
53316;BME280;39204;53.896;11.432;2022-10-01T14:17:44;99866.19;;;16.00;100.00
53316;BME280;39204;53.896;11.432;2022-10-01T14:19:20;99872.78;;;16.08;100.00
53316;BME280;39204;53.896;11.432;2022-10-01T14:24:31;99868.75;;;15.69;100.00
53316;BME280;39204;53.896;11.432;2022-10-01T14:26:18;99876.91;;;15.50;100.00
53316;BME280;39204;53.896;11.432;2022-10-01T14:32:51;99893.81;;;15.42;100.00
53316;BME280;39204;53.896;11.432;2022-10-01T14:37:05;99894.97;;;15.22;100.00
53316;BME280;39204;53.896;11.432;2022-10-01T14:38:36;99893.38;;;15.21;100.00
53316;BME280;39204;53.896;11.432;2022-10-01T14:40:37;99901.69;;;15.24;100.00